If you wish to contribute or participate in the discussions about articles you are invited to join SKYbrary as a registered user

 Actions

Cardiff Airport

From SKYbrary Wiki

EGFF
Airport
ICAO: EGFF – IATA: CWL
Summary
Name Cardiff Airport
Region Europe
Territory United Kingdom GB.gif
Location Rhoose, Vale of Glamorgan, Wales
Serving Cardiff
Elevation 67.056 m
220 ft
220 ft67.056 m
Coordinates 51° 23' 48.00" N, 3° 20' 36.00" W
Runways
Designator Length Width Surface ROPS
12/30 2392 m7,847.769 ft
46 m150.919 ft
ASP yes/yes


METAR
Observation EGFF 231250Z AUTO 28011KT 9999 FEW019 16/11 Q0999
Station Cardiff-Wales Airport
Date/Time 23 September 2020 12:50:00
Wind direction 280°
Wind speed 11 kts
Lowest cloud amount few clouds
Temperature 16°C
Dew point 11°C
Humidity 72%
QNH 999 hPa
Weather condition n/a

Cardiff Airport

ICAO: EGFF IATA: CWL

Description

International airport serving the city of Cardiff and the South Wales region.

Climatology

Temperate Marine climate/Oceanic climate (Köppen climate classification Cfb). Moderately cool summer and comparatively warm winter with a temperature range of only 14°C57.2 °F
287.15 K
516.87 °R
. Prevailing south-westerly winds from the Atlantic Ocean.

Maps

Terrain

Loading map...

Airport Layout

Loading map...


Accidents & Serious Incidents at or in vicinity of EGFF

None on SKYbrary